KDAA/DAA METAR and TAF weather

Enter ICAO airport designator
Station Type Date Time Source
KDAA METAR 2022/06/28 23:56 UTC NOAA

KDAA 282356Z 00000KT 10SM CLR 21/15 A3017 RMK A02A SLP219 53003


Station Type Date Time Source
KDAA Decoded METAR 2022/06/28 23:56 UTC NOAA

Fort Belvoir, VA, United States (KDAA) 38-43N 077-11W
Jun 28, 2022 - 07:56 PM EDT / 2022.06.28 2356 UTC
Wind: Calm:0
Visibility: 10 mile(s):0
Sky conditions: clear
Temperature: 69 F (21 C)
Dew Point: 59 F (15 C)
Relative Humidity: 68%
Pressure (altimeter): 30.17 in. Hg (1021 hPa)
Pressure tendency: 0.01 inches (0.3 hPa) higher than three hours ago
ob: KDAA 282356Z 00000KT 10SM CLR 21/15 A3017 RMK A02A SLP219 53003
cycle: 0

Station Type Date Time Source
KDAA TAF 2022/06/28 20:39 UTC NOAA

TAF TAF KDAA 282000Z 2820/3002 VRB06KT 9999 FEW250 QNH3015INS
BECMG 2914/2915 20010G15KT 9999 FEW050 QNH3013INS
BECMG 2923/2924 VRB06KT 9999 BKN050 BKN075 QNH3013INS TX29/2920Z TN20/2908Z LAST NO
AMDS AFT 2901 NEXT 2912

Example: see airport list